Kapalua-West, HI

9:40 PM HST on September 30, 2014 (GMT -1000)
The Ridge at Kapalua | Change Station
CLOSE
Current Station
Personal Weather Station
Location: Kapalua, HI
Elevation: 100 ft
Nearby Weather Stations
Active Advisory: High Surf Advisory Active Notice: Record Report

Elev 100 ft 21.00 °N, 156.66 °W | Updated 1 minute ago

Partly Cloudy
Partly Cloudy
77.5 °F
Feels Like 79 °F
N
0.9
Wind Variable Wind from ESE
Gusts 3.0 mph

Today
High -- | Low -- °F
--% Chance of Precip.
Yesterday
High -- | Low -- °F
Precip. -- in
6:17 AM 6:15 PM
Waxing Crescent, 45% visible
Pressure 29.97 in
Visibility 10.0 miles
Clouds Few 3000 ft
Heat Index 79 °F
Dew Point 72 °F
Humidity 83%
Rainfall 0.00 in
Snow Depth Not available.
UV 0 out of 12
Pollen Not available.
Air Quality Not available.
Flu Activity Not available.
METAR PHOG 010654Z 03009KT 10SM FEW030 26/22 A2996 RMK AO2 SLP149 T02560217

More Conditions Fewer Conditions

Pressure 29.97 in
Visibility 10.0 miles
Clouds Few 3000 ft
Heat Index 79 °F
Dew Point 72 °F
Humidity 83%
Rainfall 0.00 in
Snow Depth Not available.
UV 0 out of 12
Pollen Not available.
Air Quality Not available.
Flu Activity Not available.
METAR PHOG 010654Z 03009KT 10SM FEW030 26/22 A2996 RMK AO2 SLP149 T02560217

More Conditions Fewer Conditions

10-Day Weather Forecast

Almanac

Astronomy

Sep. 30, 2014 Rise Set
Actual Time 6:17 AM HST 6:15 PM HST
Civil Twilight 5:55 AM HST 6:37 PM HST
Nautical Twilight 5:29 AM HST 7:03 PM HST
Astronomical Twilight 5:04 AM HST 7:28 PM HST
Moon 12:02 PM HST (9/30) 11:28 PM HST (9/30)
Length of Visible Light 12h 41m
Length of Day
11h 57m
Tomorrow will be 1m 11s shorter.
Waxing Crescent, 45% of the Moon is Illuminated
Oct 1
Waxing Crescent
Oct 1
First Quarter
Oct 8
Full
Oct 15
Last Quarter
Oct 23
New

Yesterday's Extremes

State Highs State Lows

Community

WunderPhotos

Upload Photos

1,757,898 photos uploaded!

Nearby

Snow Depth

Station Depth Elevation
No new snow has been reported.

Earthquake Activity

City Distance Mag. Time & Date
No recent earthquake activity has been reported nearby.
Minimum magnitude displayed is 2.5.

Coastal Water Temperatures

Place Temperature
No Stations Reporting

Nearby Weather Stations